Time;durP1;ratioP1;P1;durP2;ratioP2;P2;SDS_P1;SDS_P2;PMS_P1;PMS_P2;Temp;Humidity;BMP_temperature;BMP_pressure;BME280_temperature;BME280_humidity;BME280_pressure;Samples;Min_cycle;Max_cycle;Signal;HPM_P1;HPM_P2
2020/12/07 00:02:03;;;;;;;43.22;25.30;;;;;;;;;;5091062;28;20212;-79
2020/12/07 00:04:30;;;;;;;42.58;24.58;;;;;;;;;;5090004;28;20236;-76
2020/12/07 00:06:57;;;;;;;37.50;22.83;;;;;;;;;;5089790;28;20312;-79
2020/12/07 00:09:23;;;;;;;39.25;23.75;;;;;;;;;;5077487;28;20293;-77
2020/12/07 00:11:51;;;;;;;35.65;22.88;;;;;;;;;;5075376;28;20224;-77
2020/12/07 00:14:18;;;;;;;35.15;22.58;;;;;;;;;;5050865;28;20201;-77
2020/12/07 00:16:46;;;;;;;38.17;22.40;;;;;;;;;;5051175;28;20290;-78
2020/12/07 00:19:13;;;;;;;36.58;22.25;;;;;;;;;;5049768;28;20219;-78
2020/12/07 00:21:42;;;;;;;34.92;21.63;;;;;;;;;;5061081;28;20656;-80
2020/12/07 00:24:09;;;;;;;32.40;20.52;;;;;;;;;;5072397;28;20198;-84
2020/12/07 00:26:36;;;;;;;29.17;19.13;;;;;;;;;;5073611;28;20205;-77
2020/12/07 00:29:04;;;;;;;32.25;20.10;;;;;;;;;;5073507;28;20194;-78
2020/12/07 00:31:34;;;;;;;33.28;20.33;;;;;;;;;;5074047;28;20572;-77
2020/12/07 00:34:01;;;;;;;31.73;19.52;;;;;;;;;;5076997;28;20251;-80
2020/12/07 00:36:28;;;;;;;30.48;20.90;;;;;;;;;;5070556;28;20260;-77
2020/12/07 00:38:55;;;;;;;29.70;19.08;;;;;;;;;;5071091;28;20196;-75
2020/12/07 00:41:22;;;;;;;27.40;18.13;;;;;;;;;;5073955;28;20198;-76
2020/12/07 00:43:49;;;;;;;28.38;18.75;;;;;;;;;;5075850;28;20677;-82
2020/12/07 00:46:16;;;;;;;28.45;19.58;;;;;;;;;;5076991;28;20224;-79
2020/12/07 00:48:44;;;;;;;23.95;17.13;;;;;;;;;;5077185;28;20674;-81
2020/12/07 00:51:10;;;;;;;22.38;16.45;;;;;;;;;;5077326;28;20197;-80
2020/12/07 00:53:37;;;;;;;26.60;16.98;;;;;;;;;;5079024;28;20201;-79
2020/12/07 00:56:04;;;;;;;26.05;16.33;;;;;;;;;;5080780;28;20205;-80
2020/12/07 00:58:31;;;;;;;26.25;18.38;;;;;;;;;;5074313;28;20230;-79
2020/12/07 01:00:58;;;;;;;25.17;16.75;;;;;;;;;;5074480;28;20197;-78
2020/12/07 01:03:25;;;;;;;26.15;16.70;;;;;;;;;;5074837;28;20201;-80
2020/12/07 01:05:53;;;;;;;23.95;16.20;;;;;;;;;;5075217;28;20228;-80
2020/12/07 01:08:21;;;;;;;26.45;17.90;;;;;;;;;;5078133;28;20289;-83
2020/12/07 01:10:54;;;;;;;27.45;16.13;;;;;;;;;;5077902;28;20200;-78
2020/12/07 01:13:21;;;;;;;22.58;16.20;;;;;;;;;;5077970;28;20313;-79
2020/12/07 01:15:48;;;;;;;27.85;18.58;;;;;;;;;;5078950;28;20214;-81
2020/12/07 01:18:14;;;;;;;27.20;18.55;;;;;;;;;;5081949;28;20226;-78
2020/12/07 01:20:41;;;;;;;25.75;18.27;;;;;;;;;;5094116;28;20204;-80
2020/12/07 01:23:09;;;;;;;26.50;19.00;;;;;;;;;;5094418;28;20208;-77
2020/12/07 01:25:35;;;;;;;24.35;17.83;;;;;;;;;;5094504;28;20217;-77
2020/12/07 01:28:02;;;;;;;31.55;20.20;;;;;;;;;;5082940;28;20686;-76
2020/12/07 01:30:29;;;;;;;28.48;20.92;;;;;;;;;;5076581;28;20204;-80
2020/12/07 01:32:56;;;;;;;28.23;20.45;;;;;;;;;;5076503;28;20236;-82
2020/12/07 01:35:23;;;;;;;27.48;20.88;;;;;;;;;;5076233;28;20216;-79
2020/12/07 01:37:49;;;;;;;30.58;20.27;;;;;;;;;;5078450;28;20183;-77
2020/12/07 01:40:17;;;;;;;28.88;21.35;;;;;;;;;;5081183;28;20209;-77
2020/12/07 01:42:44;;;;;;;24.40;19.65;;;;;;;;;;5093482;28;20754;-80
2020/12/07 01:45:10;;;;;;;28.02;20.65;;;;;;;;;;5094086;28;20300;-78
2020/12/07 01:47:38;;;;;;;28.05;19.95;;;;;;;;;;5094233;28;20198;-79
2020/12/07 01:50:05;;;;;;;28.25;19.35;;;;;;;;;;5082704;28;20284;-79
2020/12/07 01:52:32;;;;;;;26.60;19.02;;;;;;;;;;5075166;28;20218;-77
2020/12/07 01:54:59;;;;;;;30.45;20.05;;;;;;;;;;5075701;28;20228;-78
2020/12/07 01:57:26;;;;;;;31.27;20.58;;;;;;;;;;5076020;28;20204;-83
2020/12/07 01:59:53;;;;;;;25.30;19.50;;;;;;;;;;5078139;28;20193;-76
2020/12/07 02:02:20;;;;;;;28.48;19.02;;;;;;;;;;5081060;28;20197;-82
2020/12/07 02:04:47;;;;;;;31.70;21.02;;;;;;;;;;5092431;28;20216;-79
2020/12/07 02:07:18;;;;;;;29.92;19.63;;;;;;;;;;5092086;28;20209;-80
2020/12/07 02:09:45;;;;;;;29.67;20.48;;;;;;;;;;5093407;28;20273;-78
2020/12/07 02:12:12;;;;;;;31.02;20.45;;;;;;;;;;5082572;28;20227;-80
2020/12/07 02:14:39;;;;;;;30.17;19.40;;;;;;;;;;5079596;28;20209;-79
2020/12/07 02:17:06;;;;;;;28.05;18.95;;;;;;;;;;5090774;28;20553;-80
2020/12/07 02:19:33;;;;;;;31.35;20.38;;;;;;;;;;5093289;28;20228;-79
2020/12/07 02:22:01;;;;;;;28.85;19.27;;;;;;;;;;5093352;28;20193;-78
2020/12/07 02:24:28;;;;;;;33.13;20.08;;;;;;;;;;5086795;28;20228;-77
2020/12/07 02:26:54;;;;;;;29.10;19.30;;;;;;;;;;5075488;28;20205;-81
2020/12/07 02:29:28;;;;;;;28.33;18.63;;;;;;;;;;5075517;28;20204;-81
2020/12/07 02:31:56;;;;;;;27.15;20.02;;;;;;;;;;5075426;28;20618;-82
2020/12/07 02:34:23;;;;;;;33.20;20.60;;;;;;;;;;5076540;28;20678;-78
2020/12/07 02:36:49;;;;;;;29.80;20.75;;;;;;;;;;5078980;28;20197;-80
2020/12/07 02:39:17;;;;;;;29.35;20.25;;;;;;;;;;5073105;28;20656;-79
2020/12/07 02:41:44;;;;;;;32.97;20.38;;;;;;;;;;5072991;28;20576;-77
2020/12/07 02:44:11;;;;;;;27.23;19.90;;;;;;;;;;5072890;28;20652;-79
2020/12/07 02:46:38;;;;;;;33.17;20.52;;;;;;;;;;5073172;28;20674;-80
2020/12/07 02:49:04;;;;;;;26.65;18.95;;;;;;;;;;5074978;28;20695;-83
2020/12/07 02:51:31;;;;;;;30.85;19.52;;;;;;;;;;5074691;28;20205;-79
2020/12/07 02:53:58;;;;;;;30.42;20.92;;;;;;;;;;5074990;28;20196;-77
2020/12/07 02:56:26;;;;;;;32.55;21.05;;;;;;;;;;5076094;28;20217;-78
2020/12/07 02:58:53;;;;;;;35.25;22.83;;;;;;;;;;5078714;28;20196;-79
2020/12/07 03:01:19;;;;;;;34.30;21.90;;;;;;;;;;5090651;28;20200;-80
2020/12/07 03:03:46;;;;;;;38.33;23.75;;;;;;;;;;5091385;28;20224;-79
2020/12/07 03:06:13;;;;;;;37.22;23.58;;;;;;;;;;5092705;28;20219;-76
2020/12/07 03:08:40;;;;;;;36.15;21.92;;;;;;;;;;5085331;28;20289;-79
2020/12/07 03:11:07;;;;;;;34.83;21.38;;;;;;;;;;5074871;28;20205;-78
2020/12/07 03:13:34;;;;;;;34.35;19.85;;;;;;;;;;5074344;28;20236;-80
2020/12/07 03:16:01;;;;;;;39.15;21.17;;;;;;;;;;5074304;28;20225;-77
2020/12/07 03:18:28;;;;;;;34.42;23.23;;;;;;;;;;5075886;28;20212;-78
2020/12/07 03:20:54;;;;;;;31.77;20.65;;;;;;;;;;5078134;28;20193;-79
2020/12/07 03:23:21;;;;;;;33.13;21.35;;;;;;;;;;5089893;28;20194;-84
2020/12/07 03:25:48;;;;;;;37.80;22.65;;;;;;;;;;5092089;28;20224;-80
2020/12/07 03:28:15;;;;;;;36.92;23.40;;;;;;;;;;5092234;28;20211;-78
2020/12/07 03:30:43;;;;;;;39.30;23.42;;;;;;;;;;5084782;28;20293;-78
2020/12/07 03:33:09;;;;;;;31.92;21.65;;;;;;;;;;5074188;28;20646;-77
2020/12/07 03:35:36;;;;;;;36.00;23.02;;;;;;;;;;5074156;28;20528;-77
2020/12/07 03:38:03;;;;;;;36.55;22.23;;;;;;;;;;5074185;28;20556;-81
2020/12/07 03:40:32;;;;;;;32.67;21.35;;;;;;;;;;5075320;28;20288;-77
2020/12/07 03:42:59;;;;;;;30.33;20.75;;;;;;;;;;5077860;28;20559;-81
2020/12/07 03:45:26;;;;;;;35.08;21.02;;;;;;;;;;5071770;28;20709;-79
2020/12/07 03:47:54;;;;;;;35.15;22.20;;;;;;;;;;5071768;28;20200;-79
2020/12/07 03:50:21;;;;;;;33.38;20.98;;;;;;;;;;5071796;28;20194;-81
2020/12/07 03:52:48;;;;;;;33.60;21.45;;;;;;;;;;5072172;28;20644;-79
2020/12/07 03:55:14;;;;;;;33.20;21.65;;;;;;;;;;5073661;28;20217;-80
2020/12/07 03:57:41;;;;;;;33.05;22.30;;;;;;;;;;5073821;28;20209;-76
2020/12/07 04:00:08;;;;;;;36.78;22.95;;;;;;;;;;5073840;28;20201;-79
2020/12/07 04:02:35;;;;;;;40.25;27.23;;;;;;;;;;5075018;28;20209;-79
2020/12/07 04:05:06;;;;;;;39.40;25.45;;;;;;;;;;5076988;28;20259;-77
2020/12/07 04:07:33;;;;;;;36.47;23.65;;;;;;;;;;5088494;28;20225;-77
2020/12/07 04:10:00;;;;;;;35.55;23.45;;;;;;;;;;5091064;28;20200;-80
2020/12/07 04:12:27;;;;;;;35.95;25.50;;;;;;;;;;5091017;28;20221;-77
2020/12/07 04:14:53;;;;;;;38.83;24.45;;;;;;;;;;5081727;28;20225;-82
2020/12/07 04:17:20;;;;;;;36.35;24.00;;;;;;;;;;5077666;28;20276;-80
2020/12/07 04:19:47;;;;;;;38.92;25.15;;;;;;;;;;5084230;28;20758;-77
2020/12/07 04:22:15;;;;;;;37.63;23.13;;;;;;;;;;5091307;28;20722;-80
2020/12/07 04:24:42;;;;;;;32.65;22.10;;;;;;;;;;5091137;28;20758;-77
2020/12/07 04:27:09;;;;;;;35.03;22.15;;;;;;;;;;5089774;28;20200;-78
2020/12/07 04:29:35;;;;;;;33.90;23.92;;;;;;;;;;5073761;28;20205;-78
2020/12/07 04:32:02;;;;;;;37.03;22.88;;;;;;;;;;5073424;28;20228;-78
2020/12/07 04:34:29;;;;;;;32.15;22.27;;;;;;;;;;5073391;28;20221;-79
2020/12/07 04:36:56;;;;;;;36.30;22.70;;;;;;;;;;5073522;28;20289;-77
2020/12/07 04:39:24;;;;;;;30.67;21.30;;;;;;;;;;5077201;28;20193;-80
2020/12/07 04:41:51;;;;;;;35.67;21.50;;;;;;;;;;5084382;28;20275;-81
2020/12/07 04:44:18;;;;;;;30.55;20.85;;;;;;;;;;5091379;28;20204;-80
2020/12/07 04:46:45;;;;;;;30.30;20.77;;;;;;;;;;5091266;28;20270;-78
2020/12/07 04:49:15;;;;;;;30.50;20.42;;;;;;;;;;5089584;28;20194;-78
2020/12/07 04:51:43;;;;;;;29.33;20.38;;;;;;;;;;5073386;28;20205;-80
2020/12/07 04:54:11;;;;;;;35.78;22.52;;;;;;;;;;5072948;28;20198;-77
2020/12/07 04:56:39;;;;;;;31.08;20.73;;;;;;;;;;5073257;28;20545;-79
2020/12/07 04:59:06;;;;;;;30.23;20.45;;;;;;;;;;5073450;28;20549;-83
2020/12/07 05:01:33;;;;;;;33.20;20.33;;;;;;;;;;5076934;28;20193;-78
2020/12/07 05:03:59;;;;;;;30.88;20.05;;;;;;;;;;5084851;28;20206;-81
2020/12/07 05:06:26;;;;;;;35.42;22.10;;;;;;;;;;5090872;28;20232;-82
2020/12/07 05:08:53;;;;;;;29.52;20.10;;;;;;;;;;5090624;28;20190;-78
2020/12/07 05:11:20;;;;;;;34.95;21.33;;;;;;;;;;5089012;28;20502;-79
2020/12/07 05:13:51;;;;;;;33.15;20.60;;;;;;;;;;5073571;28;20743;-78
2020/12/07 05:16:17;;;;;;;29.08;20.02;;;;;;;;;;5072954;28;20218;-77
2020/12/07 05:18:44;;;;;;;27.90;17.95;;;;;;;;;;5072766;28;20703;-77
2020/12/07 05:21:11;;;;;;;36.25;21.73;;;;;;;;;;5073071;28;20244;-78
2020/12/07 05:23:39;;;;;;;31.55;19.55;;;;;;;;;;5076420;28;20194;-79
2020/12/07 05:26:08;;;;;;;28.20;18.85;;;;;;;;;;5083845;28;20705;-80
2020/12/07 05:28:36;;;;;;;25.75;18.42;;;;;;;;;;5094692;28;20225;-78
2020/12/07 05:31:03;;;;;;;29.90;19.67;;;;;;;;;;5094312;28;20197;-77
2020/12/07 05:33:31;;;;;;;29.30;19.23;;;;;;;;;;5091191;28;20218;-77
2020/12/07 05:35:58;;;;;;;26.95;18.15;;;;;;;;;;5075084;28;20221;-77
2020/12/07 05:38:32;;;;;;;28.60;18.27;;;;;;;;;;5075279;28;20220;-80
2020/12/07 05:41:00;;;;;;;28.10;17.77;;;;;;;;;;5076377;28;20205;-79
2020/12/07 05:43:27;;;;;;;27.80;18.20;;;;;;;;;;5076845;28;20197;-80
2020/12/07 05:45:55;;;;;;;27.65;18.45;;;;;;;;;;5079791;28;20205;-79
2020/12/07 05:48:23;;;;;;;28.20;18.23;;;;;;;;;;5075064;28;20194;-77
2020/12/07 05:50:51;;;;;;;28.58;18.98;;;;;;;;;;5074003;28;20201;-79
2020/12/07 05:53:18;;;;;;;27.02;18.20;;;;;;;;;;5073985;28;20221;-78
2020/12/07 05:55:45;;;;;;;29.92;18.88;;;;;;;;;;5073836;28;20617;-75
2020/12/07 05:58:12;;;;;;;27.73;18.33;;;;;;;;;;5076001;28;20217;-81
2020/12/07 06:00:39;;;;;;;27.90;18.70;;;;;;;;;;5076234;28;20202;-77
2020/12/07 06:03:07;;;;;;;32.58;20.63;;;;;;;;;;5075795;28;20288;-77
2020/12/07 06:05:35;;;;;;;28.58;19.02;;;;;;;;;;5078946;28;20221;-77
2020/12/07 06:08:04;;;;;;;28.67;19.40;;;;;;;;;;5081365;28;20548;-77
2020/12/07 06:10:34;;;;;;;29.75;18.02;;;;;;;;;;5093494;28;20198;-78
2020/12/07 06:13:04;;;;;;;33.65;19.17;;;;;;;;;;5092318;28;20580;-82
2020/12/07 06:15:31;;;;;;;27.92;20.05;;;;;;;;;;5093557;28;20650;-78
2020/12/07 06:17:58;;;;;;;31.50;19.63;;;;;;;;;;5076236;28;20554;-78
2020/12/07 06:20:26;;;;;;;32.80;19.85;;;;;;;;;;5075679;28;20200;-78
2020/12/07 06:22:55;;;;;;;28.25;18.48;;;;;;;;;;5075556;28;20561;-80
2020/12/07 06:25:22;;;;;;;31.55;19.90;;;;;;;;;;5075444;28;20222;-79
2020/12/07 06:27:49;;;;;;;30.45;20.08;;;;;;;;;;5077872;28;20201;-78
2020/12/07 06:30:18;;;;;;;29.23;19.35;;;;;;;;;;5074865;28;20532;-81
2020/12/07 06:32:45;;;;;;;29.67;18.77;;;;;;;;;;5062967;28;20210;-80
2020/12/07 06:35:12;;;;;;;28.55;17.95;;;;;;;;;;5068659;28;20252;-78
2020/12/07 06:37:43;;;;;;;29.33;18.90;;;;;;;;;;5070342;28;20187;-77
2020/12/07 06:40:11;;;;;;;29.65;17.15;;;;;;;;;;5073884;28;20225;-78
2020/12/07 06:42:41;;;;;;;30.95;19.80;;;;;;;;;;5073972;28;20253;-77
2020/12/07 06:45:09;;;;;;;33.30;19.98;;;;;;;;;;5073069;28;20684;-79
2020/12/07 06:47:40;;;;;;;28.67;18.92;;;;;;;;;;5073912;28;20195;-77
2020/12/07 06:50:12;;;;;;;27.67;19.00;;;;;;;;;;5076611;28;20183;-78
2020/12/07 06:52:41;;;;;;;27.23;18.00;;;;;;;;;;5073399;28;20773;-78
2020/12/07 06:55:09;;;;;;;27.70;18.55;;;;;;;;;;5070623;28;20214;-77
2020/12/07 06:57:41;;;;;;;24.30;17.15;;;;;;;;;;5071631;28;20244;-79
2020/12/07 07:00:09;;;;;;;27.00;17.77;;;;;;;;;;5071289;28;20285;-76
2020/12/07 07:02:38;;;;;;;25.17;17.55;;;;;;;;;;5072339;28;20285;-77
2020/12/07 07:05:05;;;;;;;28.65;18.00;;;;;;;;;;5072867;28;20321;-78
2020/12/07 07:07:32;;;;;;;26.17;17.63;;;;;;;;;;5072523;28;20205;-76
2020/12/07 07:09:59;;;;;;;28.77;16.80;;;;;;;;;;5073154;28;20728;-82
2020/12/07 07:12:26;;;;;;;29.75;19.50;;;;;;;;;;5076691;28;20210;-76
2020/12/07 07:14:56;;;;;;;27.35;17.50;;;;;;;;;;5078800;28;20766;-83
2020/12/07 07:17:23;;;;;;;27.20;17.67;;;;;;;;;;5071011;28;20285;-77
2020/12/07 07:19:50;;;;;;;26.08;17.58;;;;;;;;;;5071094;28;20635;-79
2020/12/07 07:22:17;;;;;;;25.90;16.60;;;;;;;;;;5071683;28;20204;-76
2020/12/07 07:24:50;;;;;;;25.70;16.85;;;;;;;;;;5072480;28;20594;-79
2020/12/07 07:29:59;;;;;;;28.45;17.50;;;;;;;;;;5076428;28;20235;-78
2020/12/07 07:32:26;;;;;;;28.20;18.15;;;;;;;;;;5085888;28;20688;-78
2020/12/07 07:34:52;;;;;;;24.55;14.68;;;;;;;;;;5087889;28;20301;-80
2020/12/07 07:37:19;;;;;;;24.35;15.70;;;;;;;;;;5055793;28;20274;-82
2020/12/07 07:39:47;;;;;;;25.75;16.63;;;;;;;;;;5056771;28;21933;-84
2020/12/07 07:42:15;;;;;;;24.55;15.48;;;;;;;;;;5073585;28;20301;-76
2020/12/07 07:44:44;;;;;;;25.40;15.10;;;;;;;;;;5072925;28;20297;-79
2020/12/07 07:47:15;;;;;;;25.73;15.02;;;;;;;;;;5057850;28;20282;-83
2020/12/07 07:53:06;;;;;;;23.02;13.80;;;;;;;;;;5076585;28;20191;-82
2020/12/07 07:59:02;;;;;;;18.75;13.45;;;;;;;;;;5070656;28;20206;-86
2020/12/07 08:17:27;;;;;;;25.17;12.63;;;;;;;;;;5069087;28;20201;-79
2020/12/07 08:20:07;;;;;;;18.50;11.18;;;;;;;;;;5065129;28;20317;-75
2020/12/07 08:22:34;;;;;;;17.20;11.35;;;;;;;;;;5069246;28;20205;-77
2020/12/07 08:25:02;;;;;;;16.60;12.38;;;;;;;;;;5072772;28;20249;-79
2020/12/07 08:27:31;;;;;;;18.92;12.32;;;;;;;;;;5073019;28;20229;-79
2020/12/07 08:30:00;;;;;;;19.95;13.07;;;;;;;;;;5074301;28;20186;-77
2020/12/07 08:32:27;;;;;;;21.13;12.52;;;;;;;;;;5076037;28;20251;-78
2020/12/07 08:34:54;;;;;;;22.63;14.02;;;;;;;;;;5068243;28;20206;-76
2020/12/07 08:37:22;;;;;;;19.33;13.32;;;;;;;;;;5071367;28;20789;-78
2020/12/07 08:39:49;;;;;;;22.27;14.40;;;;;;;;;;5069640;28;20660;-79
2020/12/07 08:42:16;;;;;;;17.55;13.27;;;;;;;;;;5071238;28;20210;-77
2020/12/07 08:44:44;;;;;;;19.42;13.23;;;;;;;;;;5076567;28;20316;-78
2020/12/07 08:47:11;;;;;;;19.25;13.07;;;;;;;;;;5064586;28;20191;-78
2020/12/07 08:49:39;;;;;;;18.80;13.55;;;;;;;;;;5070595;28;20218;-79
2020/12/07 08:52:06;;;;;;;18.95;13.10;;;;;;;;;;5069959;28;20244;-77
2020/12/07 08:54:33;;;;;;;20.42;13.48;;;;;;;;;;5069454;28;20321;-78
2020/12/07 08:57:00;;;;;;;18.25;12.93;;;;;;;;;;5072456;28;20285;-78
2020/12/07 08:59:27;;;;;;;18.98;13.40;;;;;;;;;;5063321;28;20643;-78
2020/12/07 09:01:54;;;;;;;19.88;12.20;;;;;;;;;;5075134;28;20194;-78
2020/12/07 09:04:21;;;;;;;15.25;10.80;;;;;;;;;;5076494;28;20198;-78
2020/12/07 09:06:52;;;;;;;18.75;11.30;;;;;;;;;;5079429;28;20666;-77
2020/12/07 09:09:19;;;;;;;18.60;10.75;;;;;;;;;;5082232;28;20196;-82
2020/12/07 09:11:47;;;;;;;13.57;9.82;;;;;;;;;;5094925;28;20192;-78
2020/12/07 09:14:14;;;;;;;12.82;8.52;;;;;;;;;;5085506;28;20219;-76
2020/12/07 09:16:41;;;;;;;12.90;9.25;;;;;;;;;;5067404;28;20191;-77
2020/12/07 09:19:09;;;;;;;11.25;8.75;;;;;;;;;;5075651;28;20226;-77
2020/12/07 09:21:36;;;;;;;13.43;8.68;;;;;;;;;;5074225;28;20205;-80
2020/12/07 09:24:03;;;;;;;10.25;8.20;;;;;;;;;;5060067;28;20245;-77
2020/12/07 09:26:30;;;;;;;13.77;8.07;;;;;;;;;;5067064;28;20303;-77
2020/12/07 09:28:57;;;;;;;9.50;6.72;;;;;;;;;;5074706;28;20255;-76
2020/12/07 09:31:24;;;;;;;11.68;6.32;;;;;;;;;;5075186;28;20190;-77
2020/12/07 09:33:51;;;;;;;11.45;6.85;;;;;;;;;;5073897;28;20334;-78
2020/12/07 09:36:18;;;;;;;8.02;5.85;;;;;;;;;;5054220;28;20265;-77
2020/12/07 09:38:45;;;;;;;10.60;6.13;;;;;;;;;;5055049;28;20507;-78
2020/12/07 09:41:13;;;;;;;8.40;5.80;;;;;;;;;;5072373;28;20224;-79
2020/12/07 09:43:40;;;;;;;7.50;6.35;;;;;;;;;;5075107;28;20281;-76
2020/12/07 09:46:08;;;;;;;8.70;6.00;;;;;;;;;;5074369;28;20666;-77
2020/12/07 09:48:35;;;;;;;8.40;5.53;;;;;;;;;;5075173;28;20613;-79
2020/12/07 09:51:02;;;;;;;9.32;6.00;;;;;;;;;;5077062;28;20189;-78
2020/12/07 09:53:30;;;;;;;8.65;6.20;;;;;;;;;;5079507;28;20221;-78
2020/12/07 09:55:57;;;;;;;9.00;6.07;;;;;;;;;;5080639;28;20284;-77
2020/12/07 09:58:24;;;;;;;7.68;5.70;;;;;;;;;;5072791;28;20202;-80
2020/12/07 10:00:51;;;;;;;7.00;4.88;;;;;;;;;;5072991;28;20218;-79
2020/12/07 10:03:19;;;;;;;5.70;4.95;;;;;;;;;;5073586;28;20206;-79
2020/12/07 10:05:46;;;;;;;9.05;5.00;;;;;;;;;;5076720;28;20211;-77
2020/12/07 10:08:14;;;;;;;7.20;5.45;;;;;;;;;;5084953;28;20198;-79
2020/12/07 10:10:42;;;;;;;6.18;5.05;;;;;;;;;;5073238;28;20195;-79
2020/12/07 10:13:09;;;;;;;6.38;5.47;;;;;;;;;;5071720;28;20253;-79
2020/12/07 10:15:36;;;;;;;7.18;5.63;;;;;;;;;;5071309;28;20218;-78
2020/12/07 10:18:03;;;;;;;7.93;5.30;;;;;;;;;;5075408;28;20202;-78
2020/12/07 10:20:31;;;;;;;5.97;4.50;;;;;;;;;;5077851;28;20603;-77
2020/12/07 10:22:58;;;;;;;6.07;5.22;;;;;;;;;;5072417;28;20204;-80
2020/12/07 10:25:25;;;;;;;5.90;5.10;;;;;;;;;;5072767;28;20309;-81
2020/12/07 10:27:52;;;;;;;6.97;4.68;;;;;;;;;;5071509;28;20256;-79
2020/12/07 10:30:19;;;;;;;8.10;5.65;;;;;;;;;;5065722;28;20691;-78
2020/12/07 10:32:46;;;;;;;6.22;5.00;;;;;;;;;;5073149;28;20224;-79
2020/12/07 10:35:13;;;;;;;6.97;5.68;;;;;;;;;;5074482;28;20225;-78
2020/12/07 10:37:41;;;;;;;7.80;6.03;;;;;;;;;;5074328;28;20252;-79
2020/12/07 10:40:08;;;;;;;8.13;6.00;;;;;;;;;;5075261;28;20244;-76
2020/12/07 10:42:35;;;;;;;7.95;6.13;;;;;;;;;;5077925;28;20208;-81
2020/12/07 10:45:02;;;;;;;6.43;5.60;;;;;;;;;;5073003;28;20210;-80
2020/12/07 10:47:29;;;;;;;6.88;5.47;;;;;;;;;;5066185;28;20247;-79
2020/12/07 10:49:56;;;;;;;8.95;5.57;;;;;;;;;;5072076;28;20190;-77
2020/12/07 10:52:23;;;;;;;8.35;5.80;;;;;;;;;;5072614;28;20202;-77
2020/12/07 10:54:51;;;;;;;9.70;6.28;;;;;;;;;;5074258;28;20225;-76
2020/12/07 10:57:18;;;;;;;7.05;5.38;;;;;;;;;;5065657;28;20191;-77
2020/12/07 10:59:45;;;;;;;7.80;5.70;;;;;;;;;;5074322;28;20289;-78
2020/12/07 11:02:12;;;;;;;8.07;6.43;;;;;;;;;;5073728;28;20598;-76
2020/12/07 11:04:39;;;;;;;9.90;6.45;;;;;;;;;;5077091;28;20653;-76
2020/12/07 11:07:10;;;;;;;7.95;6.63;;;;;;;;;;5067203;28;20273;-77
2020/12/07 11:09:37;;;;;;;8.30;5.68;;;;;;;;;;5072715;28;20205;-77
2020/12/07 11:12:10;;;;;;;7.70;6.40;;;;;;;;;;5070019;28;20285;-76
2020/12/07 11:14:37;;;;;;;8.65;5.90;;;;;;;;;;5069980;28;20260;-78
2020/12/07 11:17:05;;;;;;;7.30;5.80;;;;;;;;;;5074848;28;20186;-78
2020/12/07 11:19:32;;;;;;;7.85;6.22;;;;;;;;;;5079764;28;20279;-78
2020/12/07 11:21:59;;;;;;;7.70;6.13;;;;;;;;;;5074044;28;20255;-78
2020/12/07 11:24:26;;;;;;;8.52;6.53;;;;;;;;;;5070264;28;20552;-77
2020/12/07 11:26:53;;;;;;;7.63;6.40;;;;;;;;;;5071586;28;20197;-79
2020/12/07 11:29:21;;;;;;;9.00;6.53;;;;;;;;;;5073019;28;20233;-80
2020/12/07 11:31:49;;;;;;;9.75;6.28;;;;;;;;;;5064262;28;20664;-76
2020/12/07 11:34:19;;;;;;;8.60;6.43;;;;;;;;;;5053081;28;20238;-79
2020/12/07 11:36:46;;;;;;;9.20;6.70;;;;;;;;;;5065678;28;20540;-80
2020/12/07 11:39:26;;;;;;;7.80;5.78;;;;;;;;;;5075071;28;20289;-77
2020/12/07 11:42:02;;;;;;;8.95;7.20;;;;;;;;;;5076098;28;20238;-77
2020/12/07 11:44:30;;;;;;;8.60;6.68;;;;;;;;;;5071587;28;20214;-77
2020/12/07 11:46:59;;;;;;;10.05;6.65;;;;;;;;;;5071425;28;20197;-79
2020/12/07 11:49:26;;;;;;;9.30;6.85;;;;;;;;;;5070596;28;20237;-78
2020/12/07 11:51:53;;;;;;;8.55;6.70;;;;;;;;;;5071521;28;20289;-78
2020/12/07 11:54:20;;;;;;;10.75;7.50;;;;;;;;;;5073425;28;20225;-80
2020/12/07 11:56:47;;;;;;;8.25;6.40;;;;;;;;;;5067523;28;20274;-80
2020/12/07 11:59:15;;;;;;;9.35;7.25;;;;;;;;;;5052815;28;20285;-79
2020/12/07 12:01:43;;;;;;;9.75;7.05;;;;;;;;;;5061910;28;20183;-81
2020/12/07 12:04:11;;;;;;;14.23;7.45;;;;;;;;;;5076755;28;20642;-78
2020/12/07 12:06:42;;;;;;;9.77;7.18;;;6.10;99.90;;;;;;5069343;28;20562;-78
2020/12/07 12:09:13;;;;;;;9.10;6.90;;;6.20;99.90;;;;;;5070397;28;20739;-76
2020/12/07 12:11:41;;;;;;;9.93;7.68;;;6.20;99.90;;;;;;5068782;28;20290;-79
2020/12/07 12:14:09;;;;;;;13.18;8.00;;;6.20;99.90;;;;;;5082174;28;20609;-81
2020/12/07 12:16:38;;;;;;;10.05;7.25;;;6.10;99.90;;;;;;5071714;28;20198;-77
2020/12/07 12:19:07;;;;;;;9.20;7.07;;;6.10;99.90;;;;;;5074087;28;20270;-78
2020/12/07 12:21:34;;;;;;;10.65;7.53;;;6.10;99.90;;;;;;5068672;28;20268;-82
2020/12/07 12:24:03;;;;;;;12.10;7.45;;;6.10;99.90;;;;;;5067427;28;20283;-80
2020/12/07 12:26:31;;;;;;;9.77;7.35;;;6.10;99.90;;;;;;5064966;28;20222;-82
2020/12/07 12:28:58;;;;;;;10.82;6.97;;;6.10;99.90;;;;;;5095442;28;20776;-80
2020/12/07 12:31:24;;;;;;;8.98;7.13;;;6.10;99.90;;;;;;5069146;28;20400;-82
2020/12/07 12:33:53;;;;;;;10.43;7.70;;;6.10;99.90;;;;;;5068972;28;20309;-77
2020/12/07 12:36:23;;;;;;;11.43;7.28;;;6.10;99.90;;;;;;5070703;28;20607;-77
2020/12/07 12:38:50;;;;;;;10.40;6.85;;;6.10;99.90;;;;;;5071019;28;20193;-76
2020/12/07 12:41:17;;;;;;;9.75;7.43;;;6.20;99.90;;;;;;5075965;28;20198;-73
2020/12/07 12:43:43;;;;;;;10.48;6.90;;;6.10;99.90;;;;;;5091577;28;20251;-82
2020/12/07 12:46:11;;;;;;;10.27;7.70;;;6.10;99.90;;;;;;5092221;28;20308;-80
2020/12/07 12:48:39;;;;;;;13.45;7.72;;;6.20;99.90;;;;;;5061287;28;20191;-77
2020/12/07 12:51:09;;;;;;;14.27;8.02;;;;;;;;;;5085834;28;20320;-76
2020/12/07 12:53:37;;;;;;;10.63;7.50;;;6.10;99.90;;;;;;5065873;28;20225;-75
2020/12/07 12:56:06;;;;;;;11.27;7.88;;;6.20;99.90;;;;;;5059660;28;20488;-79
2020/12/07 12:58:35;;;;;;;10.15;7.38;;;;;;;;;;5072266;28;20191;-80
2020/12/07 13:01:02;;;;;;;12.35;8.40;;;6.10;99.90;;;;;;5076589;28;20191;-81
2020/12/07 13:03:30;;;;;;;11.13;7.72;;;6.10;99.90;;;;;;5078725;28;21473;-85
2020/12/07 13:05:57;;;;;;;12.13;7.63;;;6.20;99.90;;;;;;5073437;28;20294;-82
2020/12/07 13:08:24;;;;;;;11.43;7.85;;;6.20;99.90;;;;;;5070832;28;20214;-83
2020/12/07 13:10:53;;;;;;;12.80;8.73;;;;;;;;;;5074465;28;20206;-80
2020/12/07 13:13:20;;;;;;;13.20;8.57;;;6.10;99.90;;;;;;5070855;28;20301;-79
2020/12/07 13:15:53;;;;;;;12.98;9.40;;;6.20;99.90;;;;;;5108065;28;20618;-81
2020/12/07 13:18:20;;;;;;;16.05;10.75;;;6.30;99.90;;;;;;5075445;28;20197;-79
2020/12/07 13:20:55;;;;;;;12.68;9.73;;;6.20;99.90;;;;;;5071888;28;20214;-83
2020/12/07 13:23:27;;;;;;;13.48;8.88;;;6.30;99.90;;;;;;5075856;28;20715;-81
2020/12/07 13:26:01;;;;;;;15.32;8.63;;;6.30;99.90;;;;;;5079012;28;20624;-79
2020/12/07 13:28:28;;;;;;;9.88;8.05;;;6.20;99.90;;;;;;5085693;28;20211;-80
2020/12/07 13:30:55;;;;;;;11.27;8.50;;;6.20;99.90;;;;;;5073990;28;20281;-79
2020/12/07 13:33:22;;;;;;;10.65;7.63;;;6.20;99.90;;;;;;5073538;28;20612;-79
2020/12/07 13:35:48;;;;;;;11.82;8.00;;;6.20;99.90;;;;;;5068421;28;20304;-80
2020/12/07 13:38:15;;;;;;;13.10;9.10;;;6.20;99.90;;;;;;5077431;28;20255;-82
2020/12/07 13:40:41;;;;;;;11.90;7.88;;;6.30;99.90;;;;;;5075850;28;20195;-79
2020/12/07 13:43:09;;;;;;;13.35;9.68;;;6.30;99.90;;;;;;5072088;28;20648;-77
2020/12/07 13:45:35;;;;;;;14.55;10.10;;;6.30;99.90;;;;;;5073778;28;20551;-80
2020/12/07 13:48:02;;;;;;;12.32;9.07;;;6.30;99.90;;;;;;5072549;28;20644;-79
2020/12/07 13:50:31;;;;;;;15.02;10.00;;;6.30;99.90;;;;;;5073653;28;20194;-79
2020/12/07 13:52:57;;;;;;;13.13;9.25;;;6.20;99.90;;;;;;5074611;28;20194;-82
2020/12/07 13:55:25;;;;;;;13.48;8.35;;;6.30;99.90;;;;;;5063925;28;20257;-80
2020/12/07 13:57:52;;;;;;;13.18;10.00;;;6.30;99.90;;;;;;5072808;28;20281;-78
2020/12/07 14:00:19;;;;;;;14.45;10.13;;;6.30;99.90;;;;;;5076500;28;20279;-79
2020/12/07 14:02:47;;;;;;;14.88;10.60;;;6.30;99.90;;;;;;5077461;28;20293;-81
2020/12/07 14:05:14;;;;;;;16.77;10.30;;;6.30;99.90;;;;;;5092722;28;20202;-80
2020/12/07 14:07:40;;;;;;;12.88;9.05;;;6.30;99.90;;;;;;5094378;28;20201;-81
2020/12/07 14:10:07;;;;;;;13.02;9.27;;;6.30;99.90;;;;;;5077828;28;20186;-82
2020/12/07 14:12:34;;;;;;;18.27;10.88;;;6.30;99.90;;;;;;5072122;28;20657;-78
2020/12/07 14:15:02;;;;;;;14.27;9.63;;;6.30;99.90;;;;;;5062733;28;20223;-79
2020/12/07 14:17:34;;;;;;;16.33;10.48;;;6.30;99.90;;;;;;5071300;28;20197;-81
2020/12/07 14:20:08;;;;;;;15.10;9.77;;;6.30;99.90;;;;;;5069006;28;20214;-78
2020/12/07 14:22:42;;;;;;;15.82;10.00;;;6.30;99.90;;;;;;5074776;28;20182;-77
2020/12/07 14:25:33;;;;;;;13.65;9.32;;;6.30;99.90;;;;;;5079114;28;20218;-77
2020/12/07 14:30:58;;;;;;;16.77;10.15;;;6.20;99.90;;;;;;5072328;28;20255;-80
2020/12/07 14:39:14;;;;;;;13.20;9.38;;;6.20;99.90;;;;;;5073387;28;20186;-79
2020/12/07 14:41:44;;;;;;;15.90;9.55;;;6.20;99.90;;;;;;5075048;28;20199;-79